Flugplatz Langhennersdorf

Für EDOH sind keine METAR/TAF Berichte vorhanden.
Es werden die Flugwettermeldungen vom Flugplatz Dresden in 40 km Entfernung angezeigt.

Bericht für EDDC

vom 14.12. um 00:20 UTC

Wind 11 kt aus 220°

Sichtweite 10 km oder mehr

schwacher Regen

gering bewölkt in 1000 ft

aufgelockert bewölkt in 2000 ft

bedeckt in 2600 ft

Temperatur 4.0°C

Taupunkt 2.0°C

Luftfeuchtigkeit 87%

Luftdruck 986 hPa

EDDC 140020Z 22011KT 9999 -RA FEW010 SCT020 OVC026 04/02 Q0986 R04/2///95

Prognose für EDDC

vom 13.12. um 00:00 UTC

Zwischen 00:00 UTC und 00:00 UTC

Wind 10 kt aus 200°

Sichtweite 10 km oder mehr

aufgebrochene Bewölkung in 4000 ft


Zwischen 00:00 UTC und 00:00 UTC zeitweise

Sichtweite 4500 m

schwacher Regen

aufgebrochene Bewölkung in 800 ft


Zwischen 00:00 und 00:00 UTC übergehend zu

Wind 15 kt aus 240° in Böen 25 kt

Sichtweite 10 km oder mehr

aufgebrochene Bewölkung in 4000 ft


Zwischen 00:00 UTC und 00:00 UTC zeitweise

Sichtweite 4500 m

Regen

Schnee

aufgebrochene Bewölkung in 800 ft

TAF EDDC 132300Z 1400/1424 20010KT 9999 BKN040 TEMPO 1400/1405 4500 -RA BKN008 BECMG 1409/1411 24015G25KT TEMPO 1410/1415 4500 RASN BKN008
Impressum